createdAt,value
2023-04-10T00:02:51.437Z,21.05
2023-04-10T00:07:52.225Z,20.42
2023-04-10T00:12:55.994Z,20.10
2023-04-10T00:17:56.568Z,19.92
2023-04-10T00:22:57.232Z,20.38
2023-04-10T00:27:59.156Z,19.33
2023-04-10T00:32:59.896Z,19.60
2023-04-10T00:38:00.791Z,20.83
2023-04-10T00:43:02.999Z,19.48
2023-04-10T00:48:04.488Z,21.33
2023-04-10T00:53:05.225Z,21.15
2023-04-10T00:58:07.366Z,20.75
2023-04-10T01:03:08.832Z,20.17
2023-04-10T01:08:17.309Z,21.30
2023-04-10T01:13:23.936Z,19.27
2023-04-10T01:18:31.184Z,21.60
2023-04-10T01:23:53.836Z,21.55
2023-04-10T01:29:02.047Z,20.15
2023-04-10T01:34:09.519Z,22.08
2023-04-10T01:39:13.477Z,21.55
2023-04-10T01:44:16.839Z,22.95
2023-04-10T01:49:19.079Z,22.10
2023-04-10T01:54:19.996Z,22.98
2023-04-10T01:59:23.099Z,22.55
2023-04-10T02:04:23.796Z,22.23
2023-04-10T02:09:32.242Z,23.65
2023-04-10T02:14:37.361Z,22.80
2023-04-10T02:19:39.590Z,23.85
2023-04-10T02:24:40.214Z,22.98
2023-04-10T02:29:42.080Z,22.90
2023-04-10T02:34:43.820Z,22.70
2023-04-10T02:39:44.437Z,23.98
2023-04-10T02:44:48.188Z,25.17
2023-04-10T02:49:49.033Z,23.38
2023-04-10T02:54:51.884Z,25.15
2023-04-10T02:59:53.863Z,24.30
2023-04-10T03:04:57.081Z,24.70
2023-04-10T03:09:58.258Z,24.83
2023-04-10T03:15:00.499Z,23.38
2023-04-10T03:20:01.179Z,23.30
2023-04-10T03:25:02.493Z,23.73
2023-04-10T03:30:06.266Z,24.50
2023-04-10T03:35:13.586Z,23.23
2023-04-10T03:40:14.429Z,24.08
2023-04-10T03:45:16.575Z,25.40
2023-04-10T03:50:17.324Z,25.67
2023-04-10T03:55:24.253Z,25.10
2023-04-10T04:00:27.964Z,24.17
2023-04-10T04:05:35.998Z,23.35
2023-04-10T04:11:02.769Z,23.17
2023-04-10T04:16:12.143Z,23.83
2023-04-10T04:21:23.203Z,23.52
2023-04-10T04:26:39.074Z,23.33
2023-04-10T04:32:01.466Z,21.38
2023-04-10T04:37:34.372Z,20.13
2023-04-10T04:42:49.949Z,21.55
2023-04-10T04:48:18.588Z,21.33
2023-04-10T04:53:37.485Z,22.30
2023-04-10T04:58:48.768Z,21.75
2023-04-10T05:03:50.832Z,21.20
2023-04-10T05:09:26.742Z,19.77
2023-04-10T05:14:50.696Z,21.20
2023-04-10T05:20:05.278Z,20.42
2023-04-10T05:25:31.671Z,19.55
2023-04-10T05:30:53.629Z,19.25
2023-04-10T05:36:14.407Z,21.17
2023-04-10T05:41:26.770Z,23.10
2023-04-10T05:46:45.879Z,20.75
2023-04-10T05:51:58.966Z,18.95
2023-04-10T05:57:18.068Z,18.25
2023-04-10T06:02:19.211Z,17.30
2023-04-10T06:07:21.924Z,16.77
2023-04-10T06:12:22.649Z,18.17
2023-04-10T06:17:25.665Z,15.93
2023-04-10T06:22:28.623Z,16.42
2023-04-10T06:27:29.955Z,16.38
2023-04-10T06:32:31.483Z,16.98
2023-04-10T06:37:33.647Z,17.08
2023-04-10T06:42:37.287Z,16.40
2023-04-10T06:47:46.626Z,18.10
2023-04-10T06:52:48.834Z,17.52
2023-04-10T06:57:49.419Z,16.63
2023-04-10T07:02:50.164Z,15.95
2023-04-10T07:07:52.128Z,16.58
2023-04-10T07:12:52.795Z,15.75
2023-04-10T07:17:53.457Z,16.30
2023-04-10T07:22:55.439Z,16.65
2023-04-10T07:27:56.035Z,15.38
2023-04-10T07:32:57.529Z,16.05
2023-04-10T07:37:59.766Z,16.75
2023-04-10T07:43:00.330Z,16.35
2023-04-10T07:48:02.189Z,15.68
2023-04-10T07:53:07.802Z,14.18
2023-04-10T07:58:08.539Z,15.63
2023-04-10T08:03:09.304Z,16.55
2023-04-10T08:08:11.482Z,16.02
2023-04-10T08:13:12.615Z,15.00
2023-04-10T08:18:13.203Z,15.05
2023-04-10T08:23:20.420Z,14.57
2023-04-10T08:28:21.564Z,14.18
2023-04-10T08:33:22.143Z,15.23
2023-04-10T08:38:25.070Z,15.20
2023-04-10T08:43:27.122Z,14.45
2023-04-10T08:48:36.507Z,15.20
2023-04-10T08:53:41.854Z,14.77
2023-04-10T08:58:42.773Z,16.85
2023-04-10T09:03:43.559Z,15.77
2023-04-10T09:08:45.595Z,15.13
2023-04-10T09:13:46.412Z,14.18
2023-04-10T09:18:49.427Z,11.35
2023-04-10T09:24:01.694Z,13.15
2023-04-10T09:29:04.254Z,11.38
2023-04-10T09:34:12.081Z,13.73
2023-04-10T09:39:14.083Z,11.52
2023-04-10T09:44:14.696Z,10.57
2023-04-10T09:49:15.760Z,10.88
2023-04-10T09:54:17.774Z,9.20
2023-04-10T09:59:19.701Z,7.93
2023-04-10T10:04:20.554Z,10.23
2023-04-10T10:09:22.610Z,6.03
2023-04-10T10:14:26.864Z,9.73
2023-04-10T10:19:32.674Z,9.48
2023-04-10T10:24:36.816Z,9.63
2023-04-10T10:29:39.387Z,9.02
2023-04-10T10:34:40.302Z,7.82
2023-04-10T10:39:54.284Z,8.82
2023-04-10T10:45:02.066Z,8.73
2023-04-10T10:50:04.882Z,8.50
2023-04-10T10:55:35.009Z,8.32
2023-04-10T11:01:06.792Z,8.90
2023-04-10T11:06:09.469Z,7.85
2023-04-10T11:11:15.730Z,7.25
2023-04-10T11:16:16.613Z,7.20
2023-04-10T11:21:18.689Z,8.20
2023-04-10T11:26:38.281Z,7.80
2023-04-10T11:31:39.366Z,8.50
2023-04-10T11:36:41.811Z,8.55
2023-04-10T11:41:45.000Z,8.82
2023-04-10T11:46:47.379Z,8.55
2023-04-10T11:51:49.392Z,9.25
2023-04-10T11:56:59.615Z,9.95
2023-04-10T12:02:09.458Z,9.43
2023-04-10T12:07:10.580Z,8.27
2023-04-10T12:12:12.496Z,8.18
2023-04-10T12:17:13.874Z,10.00
2023-04-10T12:22:14.516Z,9.13
2023-04-10T12:27:20.866Z,10.10
2023-04-10T12:32:22.255Z,8.50
2023-04-10T12:37:22.884Z,8.02
2023-04-10T12:42:27.136Z,6.90
2023-04-10T12:47:29.481Z,7.03
2023-04-10T12:52:31.493Z,7.00
2023-04-10T12:57:33.405Z,6.10
2023-04-10T13:02:34.283Z,6.80
2023-04-10T13:07:35.127Z,6.40
2023-04-10T13:12:38.629Z,6.18
2023-04-10T13:17:40.915Z,6.63
2023-04-10T13:22:41.567Z,7.10
2023-04-10T13:27:43.485Z,6.65
2023-04-10T13:32:44.215Z,6.55
2023-04-10T13:37:46.090Z,5.10
2023-04-10T13:42:48.417Z,5.13
2023-04-10T13:47:49.161Z,5.47
2023-04-10T13:52:51.579Z,4.50
2023-04-10T13:57:54.931Z,5.40
2023-04-10T14:02:55.871Z,4.80
2023-04-10T14:07:57.088Z,4.32
2023-04-10T14:12:59.054Z,4.30
2023-04-10T14:17:59.775Z,4.13
2023-04-10T14:23:00.382Z,4.35
2023-04-10T14:28:02.437Z,3.38
2023-04-10T14:33:03.195Z,3.40
2023-04-10T14:38:04.174Z,3.72
2023-04-10T14:43:06.140Z,4.07
2023-04-10T14:48:06.885Z,4.30
2023-04-10T14:53:09.808Z,4.03
2023-04-10T14:58:12.034Z,4.65
2023-04-10T15:03:12.774Z,5.05
2023-04-10T15:08:13.404Z,4.15
2023-04-10T15:13:15.442Z,5.22
2023-04-10T15:18:16.205Z,5.05
2023-04-10T15:23:16.800Z,5.07
2023-04-10T15:28:18.732Z,4.75
2023-04-10T15:33:19.512Z,4.88
2023-04-10T15:38:20.347Z,5.38
2023-04-10T15:43:22.276Z,5.10
2023-04-10T15:48:24.490Z,4.93
2023-04-10T15:53:25.284Z,5.53
2023-04-10T15:58:27.308Z,5.18
2023-04-10T16:03:30.165Z,5.50
2023-04-10T16:08:31.295Z,5.05
2023-04-10T16:13:33.296Z,5.05
2023-04-10T16:18:33.968Z,5.57
2023-04-10T16:23:34.599Z,5.70
2023-04-10T16:28:36.528Z,5.43
2023-04-10T16:33:37.183Z,5.15
2023-04-10T16:38:37.855Z,4.80
2023-04-10T16:43:40.066Z,5.55
2023-04-10T16:48:40.775Z,5.43
2023-04-10T16:53:41.382Z,5.13
2023-04-10T16:58:43.394Z,5.50
2023-04-10T17:03:44.122Z,5.22
2023-04-10T17:08:45.113Z,5.45
2023-04-10T17:13:47.078Z,4.75
2023-04-10T17:18:47.804Z,5.07
2023-04-10T17:23:48.835Z,5.10
2023-04-10T17:28:51.138Z,5.75
2023-04-10T17:33:51.797Z,5.38
2023-04-10T17:38:54.146Z,5.18
2023-04-10T17:43:56.268Z,4.97
2023-04-10T17:49:01.259Z,4.90
2023-04-10T17:54:02.214Z,5.20
2023-04-10T17:59:04.223Z,5.32
2023-04-10T18:04:05.135Z,5.20
2023-04-10T18:09:05.914Z,5.30
2023-04-10T18:14:07.818Z,5.28
2023-04-10T18:19:08.583Z,5.22
2023-04-10T18:24:10.695Z,5.50
2023-04-10T18:29:12.606Z,5.20
2023-04-10T18:34:13.451Z,6.50
2023-04-10T18:39:14.303Z,6.00
2023-04-10T18:44:16.307Z,6.45
2023-04-10T18:49:17.009Z,6.95
2023-04-10T18:54:18.050Z,7.95
2023-04-10T18:59:20.161Z,8.35
2023-04-10T19:04:20.892Z,8.25
2023-04-10T19:09:21.531Z,9.27
2023-04-10T19:14:23.486Z,8.48
2023-04-10T19:19:24.172Z,8.43
2023-04-10T19:24:24.783Z,8.68
2023-04-10T19:29:26.737Z,9.20
2023-04-10T19:34:27.392Z,8.38
2023-04-10T19:39:28.177Z,8.70
2023-04-10T19:44:30.116Z,9.48
2023-04-10T19:49:33.001Z,8.02
2023-04-10T19:54:33.661Z,9.50
2023-04-10T19:59:36.697Z,9.10
2023-04-10T20:04:37.501Z,8.45
2023-04-10T20:09:38.231Z,8.60
2023-04-10T20:14:40.237Z,8.77
2023-04-10T20:19:40.976Z,8.43
2023-04-10T20:24:41.601Z,8.43
2023-04-10T20:29:43.627Z,8.18
2023-04-10T20:34:44.376Z,8.65
2023-04-10T20:39:45.278Z,8.77
2023-04-10T20:44:47.238Z,9.05
2023-04-10T20:49:47.847Z,8.70
2023-04-10T20:54:48.448Z,8.10
2023-04-10T20:59:51.949Z,8.35
2023-04-10T21:04:52.922Z,8.52
2023-04-10T21:09:53.552Z,8.10
2023-04-10T21:14:55.480Z,7.75
2023-04-10T21:19:56.069Z,8.20
2023-04-10T21:24:56.848Z,8.07
2023-04-10T21:29:58.766Z,7.65
2023-04-10T21:34:59.549Z,7.15
2023-04-10T21:40:00.378Z,7.32
2023-04-10T21:45:02.395Z,7.13
2023-04-10T21:50:03.178Z,7.05
2023-04-10T21:55:06.188Z,6.65
2023-04-10T22:00:10.244Z,6.45
2023-04-10T22:05:11.364Z,6.65
2023-04-10T22:10:12.047Z,6.28
2023-04-10T22:15:14.141Z,6.32
2023-04-10T22:20:14.760Z,6.90
2023-04-10T22:25:15.640Z,7.20
2023-04-10T22:30:17.809Z,7.05
2023-04-10T22:35:18.353Z,6.47
2023-04-10T22:40:19.065Z,6.50
2023-04-10T22:45:21.602Z,6.57
2023-04-10T22:50:22.269Z,6.53
2023-04-10T22:55:22.933Z,6.15
2023-04-10T23:00:24.937Z,6.68
2023-04-10T23:05:25.519Z,6.65
2023-04-10T23:10:26.199Z,6.03
2023-04-10T23:15:28.184Z,6.45
2023-04-10T23:20:28.780Z,6.90
2023-04-10T23:25:29.443Z,7.10
2023-04-10T23:30:32.379Z,6.10
2023-04-10T23:35:35.029Z,6.60
2023-04-10T23:40:35.748Z,6.28
2023-04-10T23:45:37.640Z,6.15
2023-04-10T23:50:38.249Z,6.07
2023-04-10T23:55:40.078Z,6.38
